sensor_id;sensor_type;location;lat;lon;timestamp;pressure;altitude;pressure_sealevel;temperature;humidity
7614;BME280;3848;42.016;23.098;2022-11-13T00:00:52;98495.53;;;6.25;100.00
7614;BME280;3848;42.016;23.098;2022-11-13T00:03:19;98506.19;;;6.43;100.00
7614;BME280;3848;42.016;23.098;2022-11-13T00:05:47;98512.13;;;6.45;100.00
7614;BME280;3848;42.016;23.098;2022-11-13T00:08:14;98508.00;;;6.47;100.00
7614;BME280;3848;42.016;23.098;2022-11-13T00:10:41;98506.28;;;6.46;100.00
7614;BME280;3848;42.016;23.098;2022-11-13T00:13:08;98497.75;;;6.42;100.00
7614;BME280;3848;42.016;23.098;2022-11-13T00:15:34;98506.19;;;6.43;100.00
7614;BME280;3848;42.016;23.098;2022-11-13T00:18:01;98489.22;;;6.39;100.00
7614;BME280;3848;42.016;23.098;2022-11-13T00:20:28;98505.19;;;6.38;100.00
7614;BME280;3848;42.016;23.098;2022-11-13T00:22:56;98495.13;;;6.39;100.00
7614;BME280;3848;42.016;23.098;2022-11-13T00:25:23;98488.19;;;6.32;100.00
7614;BME280;3848;42.016;23.098;2022-11-13T00:27:50;98498.28;;;6.32;100.00
7614;BME280;3848;42.016;23.098;2022-11-13T00:30:17;98498.28;;;6.32;100.00
7614;BME280;3848;42.016;23.098;2022-11-13T00:32:44;98501.38;;;6.24;100.00
7614;BME280;3848;42.016;23.098;2022-11-13T00:35:10;98501.72;;;6.07;100.00
7614;BME280;3848;42.016;23.098;2022-11-13T00:37:37;98486.50;;;5.80;100.00
7614;BME280;3848;42.016;23.098;2022-11-13T00:40:07;98503.25;;;5.78;100.00
7614;BME280;3848;42.016;23.098;2022-11-13T00:42:33;98497.13;;;5.70;100.00
7614;BME280;3848;42.016;23.098;2022-11-13T00:45:00;98496.16;;;5.67;100.00
7614;BME280;3848;42.016;23.098;2022-11-13T00:47:27;98493.59;;;5.65;100.00
7614;BME280;3848;42.016;23.098;2022-11-13T00:49:54;98495.03;;;5.59;100.00
7614;BME280;3848;42.016;23.098;2022-11-13T00:52:22;98498.44;;;5.61;100.00
7614;BME280;3848;42.016;23.098;2022-11-13T00:54:48;98495.69;;;5.53;100.00
7614;BME280;3848;42.016;23.098;2022-11-13T00:57:16;98484.66;;;5.49;100.00
7614;BME280;3848;42.016;23.098;2022-11-13T00:59:43;98489.69;;;5.49;100.00
7614;BME280;3848;42.016;23.098;2022-11-13T01:02:10;98487.16;;;5.49;100.00
7614;BME280;3848;42.016;23.098;2022-11-13T01:04:39;98489.94;;;5.57;100.00
7614;BME280;3848;42.016;23.098;2022-11-13T01:07:06;98484.94;;;5.59;100.00
7614;BME280;3848;42.016;23.098;2022-11-13T01:09:33;98486.78;;;5.63;100.00
7614;BME280;3848;42.016;23.098;2022-11-13T01:12:00;98474.06;;;5.60;100.00
7614;BME280;3848;42.016;23.098;2022-11-13T01:14:28;98486.88;;;5.66;100.00
7614;BME280;3848;42.016;23.098;2022-11-13T01:16:55;98488.44;;;5.62;100.00
7614;BME280;3848;42.016;23.098;2022-11-13T01:19:21;98495.03;;;5.59;100.00
7614;BME280;3848;42.016;23.098;2022-11-13T01:21:48;98495.84;;;5.58;100.00
7614;BME280;3848;42.016;23.098;2022-11-13T01:24:15;98498.34;;;5.58;100.00
7614;BME280;3848;42.016;23.098;2022-11-13T01:26:42;98488.88;;;5.50;100.00
7614;BME280;3848;42.016;23.098;2022-11-13T01:29:09;98469.94;;;5.38;100.00
7614;BME280;3848;42.016;23.098;2022-11-13T01:31:38;98482.84;;;5.45;100.00
7614;BME280;3848;42.016;23.098;2022-11-13T01:34:05;98428.06;;;5.16;100.00
7614;BME280;3848;42.016;23.098;2022-11-13T01:36:31;98485.41;;;5.47;100.00
7614;BME280;3848;42.016;23.098;2022-11-13T01:38:58;98480.25;;;5.44;100.00
7614;BME280;3848;42.016;23.098;2022-11-13T01:41:27;98470.00;;;5.39;100.00
7614;BME280;3848;42.016;23.098;2022-11-13T01:43:55;98488.69;;;5.44;100.00
7614;BME280;3848;42.016;23.098;2022-11-13T01:46:29;98473.59;;;5.46;100.00
7614;BME280;3848;42.016;23.098;2022-11-13T01:49:01;98475.53;;;5.53;100.00
7614;BME280;3848;42.016;23.098;2022-11-13T01:51:32;98488.06;;;5.51;100.00
7614;BME280;3848;42.016;23.098;2022-11-13T01:54:03;98489.19;;;5.60;100.00
7614;BME280;3848;42.016;23.098;2022-11-13T01:56:30;98489.69;;;5.49;100.00
7614;BME280;3848;42.016;23.098;2022-11-13T01:59:01;98493.25;;;5.31;100.00
7614;BME280;3848;42.016;23.098;2022-11-13T02:01:30;98486.38;;;5.27;100.00
7614;BME280;3848;42.016;23.098;2022-11-13T02:03:58;98495.00;;;5.09;100.00
7614;BME280;3848;42.016;23.098;2022-11-13T02:06:28;98486.09;;;4.95;100.00
7614;BME280;3848;42.016;23.098;2022-11-13T02:08:56;98496.97;;;4.94;100.00
7614;BME280;3848;42.016;23.098;2022-11-13T02:11:23;98496.13;;;4.94;100.00
7614;BME280;3848;42.016;23.098;2022-11-13T02:13:50;98495.16;;;4.90;100.00
7614;BME280;3848;42.016;23.098;2022-11-13T02:16:18;98491.72;;;4.88;100.00
7614;BME280;3848;42.016;23.098;2022-11-13T02:18:45;98501.63;;;4.83;100.00
7614;BME280;3848;42.016;23.098;2022-11-13T02:21:24;98498.06;;;4.78;100.00
7614;BME280;3848;42.016;23.098;2022-11-13T02:23:58;98490.19;;;4.69;100.00
7614;BME280;3848;42.016;23.098;2022-11-13T02:26:28;98501.34;;;4.76;100.00
7614;BME280;3848;42.016;23.098;2022-11-13T02:28:56;98498.25;;;4.83;100.00
7614;BME280;3848;42.016;23.098;2022-11-13T02:31:23;98487.44;;;4.85;100.00
7614;BME280;3848;42.016;23.098;2022-11-13T02:33:50;98486.75;;;4.89;100.00
7614;BME280;3848;42.016;23.098;2022-11-13T02:36:17;98466.44;;;4.85;100.00
7614;BME280;3848;42.016;23.098;2022-11-13T02:38:47;98490.38;;;4.98;100.00
7614;BME280;3848;42.016;23.098;2022-11-13T02:41:13;98487.16;;;5.00;100.00
7614;BME280;3848;42.016;23.098;2022-11-13T02:43:41;98484.69;;;5.02;100.00
7614;BME280;3848;42.016;23.098;2022-11-13T02:46:08;98422.72;;;4.59;100.00
7614;BME280;3848;42.016;23.098;2022-11-13T02:48:35;98488.06;;;5.02;100.00
7614;BME280;3848;42.016;23.098;2022-11-13T02:51:02;98489.66;;;5.00;100.00
7614;BME280;3848;42.016;23.098;2022-11-13T02:53:29;98494.31;;;4.89;100.00
7614;BME280;3848;42.016;23.098;2022-11-13T02:55:56;98488.94;;;4.80;100.00
7614;BME280;3848;42.016;23.098;2022-11-13T02:58:23;98475.19;;;4.72;100.00
7614;BME280;3848;42.016;23.098;2022-11-13T03:00:51;98490.53;;;4.78;100.00
7614;BME280;3848;42.016;23.098;2022-11-13T03:03:18;98495.34;;;4.72;100.00
7614;BME280;3848;42.016;23.098;2022-11-13T03:05:47;98497.00;;;4.72;100.00
7614;BME280;3848;42.016;23.098;2022-11-13T03:08:14;98498.03;;;4.77;100.00
7614;BME280;3848;42.016;23.098;2022-11-13T03:10:41;98490.41;;;4.75;100.00
7614;BME280;3848;42.016;23.098;2022-11-13T03:13:08;98499.13;;;4.83;100.00
7614;BME280;3848;42.016;23.098;2022-11-13T03:15:34;98509.41;;;4.89;100.00
7614;BME280;3848;42.016;23.098;2022-11-13T03:18:03;98507.38;;;4.79;100.00
7614;BME280;3848;42.016;23.098;2022-11-13T03:20:30;98512.91;;;4.71;100.00
7614;BME280;3848;42.016;23.098;2022-11-13T03:22:57;98513.44;;;4.62;100.00
7614;BME280;3848;42.016;23.098;2022-11-13T03:25:24;98506.63;;;4.59;100.00
7614;BME280;3848;42.016;23.098;2022-11-13T03:27:50;98508.50;;;4.65;100.00
7614;BME280;3848;42.016;23.098;2022-11-13T03:30:18;98507.66;;;4.65;100.00
7614;BME280;3848;42.016;23.098;2022-11-13T03:32:45;98508.47;;;4.64;100.00
7614;BME280;3848;42.016;23.098;2022-11-13T03:35:13;98514.47;;;4.67;100.00
7614;BME280;3848;42.016;23.098;2022-11-13T03:37:40;98510.13;;;4.63;100.00
7614;BME280;3848;42.016;23.098;2022-11-13T03:40:07;98516.63;;;4.58;100.00
7614;BME280;3848;42.016;23.098;2022-11-13T03:42:34;98523.78;;;4.47;100.00
7614;BME280;3848;42.016;23.098;2022-11-13T03:45:01;98522.81;;;4.44;100.00
7614;BME280;3848;42.016;23.098;2022-11-13T03:47:28;98524.41;;;4.42;100.00
7614;BME280;3848;42.016;23.098;2022-11-13T03:49:55;98517.78;;;4.44;100.00
7614;BME280;3848;42.016;23.098;2022-11-13T03:52:23;98529.56;;;4.45;100.00
7614;BME280;3848;42.016;23.098;2022-11-13T03:54:50;98526.47;;;4.52;100.00
7614;BME280;3848;42.016;23.098;2022-11-13T03:57:17;98524.91;;;4.55;100.00
7614;BME280;3848;42.016;23.098;2022-11-13T03:59:43;98518.34;;;4.59;100.00
7614;BME280;3848;42.016;23.098;2022-11-13T04:02:10;98516.00;;;4.64;100.00
7614;BME280;3848;42.016;23.098;2022-11-13T04:04:37;98511.94;;;4.67;100.00
7614;BME280;3848;42.016;23.098;2022-11-13T04:07:04;98525.44;;;4.69;100.00
7614;BME280;3848;42.016;23.098;2022-11-13T04:09:32;98525.56;;;4.72;100.00
7614;BME280;3848;42.016;23.098;2022-11-13T04:11:58;98541.50;;;4.73;100.00
7614;BME280;3848;42.016;23.098;2022-11-13T04:14:25;98543.44;;;4.57;100.00
7614;BME280;3848;42.016;23.098;2022-11-13T04:16:52;98531.50;;;4.52;100.00
7614;BME280;3848;42.016;23.098;2022-11-13T04:19:19;98526.56;;;4.55;100.00
7614;BME280;3848;42.016;23.098;2022-11-13T04:21:45;98514.97;;;4.58;100.00
7614;BME280;3848;42.016;23.098;2022-11-13T04:24:12;98518.47;;;4.62;100.00
7614;BME280;3848;42.016;23.098;2022-11-13T04:26:40;98526.94;;;4.64;100.00
7614;BME280;3848;42.016;23.098;2022-11-13T04:29:07;98526.81;;;4.61;100.00
7614;BME280;3848;42.016;23.098;2022-11-13T04:31:34;98527.56;;;4.58;100.00
7614;BME280;3848;42.016;23.098;2022-11-13T04:34:01;98523.50;;;4.62;100.00
7614;BME280;3848;42.016;23.098;2022-11-13T04:36:27;98525.13;;;4.60;100.00
7614;BME280;3848;42.016;23.098;2022-11-13T04:38:54;98531.97;;;4.64;100.00
7614;BME280;3848;42.016;23.098;2022-11-13T04:41:21;98538.34;;;4.56;100.00
7614;BME280;3848;42.016;23.098;2022-11-13T04:44:06;98541.34;;;4.46;100.00
7614;BME280;3848;42.016;23.098;2022-11-13T04:46:33;98537.69;;;4.38;100.00
7614;BME280;3848;42.016;23.098;2022-11-13T04:49:00;98523.69;;;4.23;100.00
7614;BME280;3848;42.016;23.098;2022-11-13T04:51:26;98535.47;;;4.24;100.00
7614;BME280;3848;42.016;23.098;2022-11-13T04:53:53;98536.22;;;4.22;100.00
7614;BME280;3848;42.016;23.098;2022-11-13T04:56:20;98543.59;;;4.17;100.00
7614;BME280;3848;42.016;23.098;2022-11-13T04:58:47;98530.78;;;4.13;100.00
7614;BME280;3848;42.016;23.098;2022-11-13T05:01:15;98541.72;;;4.13;100.00
7614;BME280;3848;42.016;23.098;2022-11-13T05:03:41;98532.34;;;4.09;100.00
7614;BME280;3848;42.016;23.098;2022-11-13T05:06:09;98540.44;;;4.02;100.00
7614;BME280;3848;42.016;23.098;2022-11-13T05:08:36;98527.75;;;3.99;100.00
7614;BME280;3848;42.016;23.098;2022-11-13T05:11:04;98545.03;;;3.91;100.00
7614;BME280;3848;42.016;23.098;2022-11-13T05:13:32;98559.88;;;3.85;100.00
7614;BME280;3848;42.016;23.098;2022-11-13T05:15:59;98557.47;;;3.88;100.00
7614;BME280;3848;42.016;23.098;2022-11-13T05:18:28;98555.94;;;3.92;100.00
7614;BME280;3848;42.016;23.098;2022-11-13T05:20:55;98553.41;;;3.92;100.00
7614;BME280;3848;42.016;23.098;2022-11-13T05:23:22;98549.31;;;3.94;100.00
7614;BME280;3848;42.016;23.098;2022-11-13T05:25:49;98551.97;;;3.97;100.00
7614;BME280;3848;42.016;23.098;2022-11-13T05:28:16;98562.34;;;4.05;100.00
7614;BME280;3848;42.016;23.098;2022-11-13T05:30:43;98550.44;;;4.01;100.00
7614;BME280;3848;42.016;23.098;2022-11-13T05:33:10;98571.78;;;4.10;100.00
7614;BME280;3848;42.016;23.098;2022-11-13T05:35:38;98578.66;;;4.14;100.00
7614;BME280;3848;42.016;23.098;2022-11-13T05:38:05;98577.84;;;4.15;100.00
7614;BME280;3848;42.016;23.098;2022-11-13T05:40:32;98573.81;;;4.19;100.00
7614;BME280;3848;42.016;23.098;2022-11-13T05:42:59;98577.56;;;4.28;100.00
7614;BME280;3848;42.016;23.098;2022-11-13T05:45:25;98584.31;;;4.29;100.00
7614;BME280;3848;42.016;23.098;2022-11-13T05:47:52;98570.13;;;4.32;100.00
7614;BME280;3848;42.016;23.098;2022-11-13T05:50:19;98570.81;;;4.27;100.00
7614;BME280;3848;42.016;23.098;2022-11-13T05:52:48;98584.53;;;4.36;100.00
7614;BME280;3848;42.016;23.098;2022-11-13T05:55:14;98574.53;;;4.37;100.00
7614;BME280;3848;42.016;23.098;2022-11-13T05:57:41;98575.41;;;4.38;100.00
7614;BME280;3848;42.016;23.098;2022-11-13T06:00:09;98582.28;;;4.42;100.00
7614;BME280;3848;42.016;23.098;2022-11-13T06:02:36;98581.66;;;4.47;100.00
7614;BME280;3848;42.016;23.098;2022-11-13T06:05:03;98579.03;;;4.44;100.00
7614;BME280;3848;42.016;23.098;2022-11-13T06:07:30;98583.94;;;4.41;100.00
7614;BME280;3848;42.016;23.098;2022-11-13T06:09:58;98583.81;;;4.38;100.00
7614;BME280;3848;42.016;23.098;2022-11-13T06:12:25;98587.06;;;4.36;100.00
7614;BME280;3848;42.016;23.098;2022-11-13T06:14:51;98587.63;;;4.28;100.00
7614;BME280;3848;42.016;23.098;2022-11-13T06:17:18;98591.38;;;4.17;100.00
7614;BME280;3848;42.016;23.098;2022-11-13T06:19:45;98599.31;;;4.07;100.00
7614;BME280;3848;42.016;23.098;2022-11-13T06:22:12;98575.19;;;3.91;100.00
7614;BME280;3848;42.016;23.098;2022-11-13T06:24:39;98599.88;;;4.00;100.00
7614;BME280;3848;42.016;23.098;2022-11-13T06:27:07;98595.66;;;3.99;100.00
7614;BME280;3848;42.016;23.098;2022-11-13T06:29:34;98584.56;;;3.95;100.00
7614;BME280;3848;42.016;23.098;2022-11-13T06:32:00;98596.81;;;4.07;100.00
7614;BME280;3848;42.016;23.098;2022-11-13T06:34:27;98598.66;;;4.11;100.00
7614;BME280;3848;42.016;23.098;2022-11-13T06:36:54;98584.34;;;4.10;100.00
7614;BME280;3848;42.016;23.098;2022-11-13T06:39:21;98604.19;;;4.23;100.00
7614;BME280;3848;42.016;23.098;2022-11-13T06:41:47;98601.13;;;4.31;100.00
7614;BME280;3848;42.016;23.098;2022-11-13T06:44:15;98607.19;;;4.36;100.00
7614;BME280;3848;42.016;23.098;2022-11-13T06:46:42;98573.16;;;4.23;100.00
7614;BME280;3848;42.016;23.098;2022-11-13T06:49:09;98593.03;;;4.38;100.00
7614;BME280;3848;42.016;23.098;2022-11-13T06:51:36;98589.25;;;4.49;100.00
7614;BME280;3848;42.016;23.098;2022-11-13T06:54:04;98582.94;;;4.58;100.00
7614;BME280;3848;42.016;23.098;2022-11-13T06:56:30;98589.06;;;4.65;100.00
7614;BME280;3848;42.016;23.098;2022-11-13T06:58:57;98593.53;;;4.72;100.00
7614;BME280;3848;42.016;23.098;2022-11-13T07:01:26;98591.38;;;4.81;100.00
7614;BME280;3848;42.016;23.098;2022-11-13T07:06:38;98588.56;;;4.96;100.00
7614;BME280;3848;42.016;23.098;2022-11-13T07:09:05;98589.66;;;5.03;100.00
7614;BME280;3848;42.016;23.098;2022-11-13T07:11:32;98588.28;;;5.11;100.00
7614;BME280;3848;42.016;23.098;2022-11-13T07:13:58;98595.09;;;5.13;100.00
7614;BME280;3848;42.016;23.098;2022-11-13T07:16:26;98593.09;;;5.27;100.00
7614;BME280;3848;42.016;23.098;2022-11-13T07:18:53;98572.91;;;5.27;100.00
7614;BME280;3848;42.016;23.098;2022-11-13T07:21:21;98587.91;;;5.46;100.00
7614;BME280;3848;42.016;23.098;2022-11-13T07:26:33;98575.72;;;5.59;100.00
7614;BME280;3848;42.016;23.098;2022-11-13T07:29:00;98575.28;;;5.70;100.00
7614;BME280;3848;42.016;23.098;2022-11-13T07:31:28;98581.53;;;5.81;100.00
7614;BME280;3848;42.016;23.098;2022-11-13T07:33:55;98572.66;;;5.91;100.00
7614;BME280;3848;42.016;23.098;2022-11-13T07:36:22;98569.53;;;5.98;100.00
7614;BME280;3848;42.016;23.098;2022-11-13T07:38:50;98551.97;;;6.01;100.00
7614;BME280;3848;42.016;23.098;2022-11-13T07:41:17;98548.28;;;6.17;100.00
7614;BME280;3848;42.016;23.098;2022-11-13T07:43:44;98559.81;;;6.36;100.00
7614;BME280;3848;42.016;23.098;2022-11-13T07:46:11;98556.97;;;6.52;100.00
7614;BME280;3848;42.016;23.098;2022-11-13T07:48:39;98553.22;;;6.66;100.00
7614;BME280;3848;42.016;23.098;2022-11-13T07:51:05;98545.91;;;6.76;100.00
7614;BME280;3848;42.016;23.098;2022-11-13T07:53:32;98517.84;;;6.66;100.00
7614;BME280;3848;42.016;23.098;2022-11-13T07:56:01;98551.75;;;7.03;100.00
7614;BME280;3848;42.016;23.098;2022-11-13T07:58:28;98546.19;;;7.15;100.00
7614;BME280;3848;42.016;23.098;2022-11-13T08:01:00;98544.81;;;7.26;100.00
7614;BME280;3848;42.016;23.098;2022-11-13T08:03:27;98540.28;;;7.46;100.00
7614;BME280;3848;42.016;23.098;2022-11-13T08:06:00;98546.50;;;7.57;100.00
7614;BME280;3848;42.016;23.098;2022-11-13T08:08:27;98543.38;;;7.67;100.00
7614;BME280;3848;42.016;23.098;2022-11-13T08:10:54;98537.94;;;7.85;100.00
7614;BME280;3848;42.016;23.098;2022-11-13T08:13:21;98545.91;;;7.99;100.00
7614;BME280;3848;42.016;23.098;2022-11-13T08:15:48;98542.94;;;8.15;100.00
7614;BME280;3848;42.016;23.098;2022-11-13T08:18:14;98549.19;;;8.31;100.00
7614;BME280;3848;42.016;23.098;2022-11-13T08:20:41;98538.47;;;8.39;100.00
7614;BME280;3848;42.016;23.098;2022-11-13T08:23:09;98541.13;;;8.44;100.00
7614;BME280;3848;42.016;23.098;2022-11-13T08:25:36;98537.09;;;8.53;100.00
7614;BME280;3848;42.016;23.098;2022-11-13T08:28:03;98533.25;;;8.69;100.00
7614;BME280;3848;42.016;23.098;2022-11-13T08:30:30;98528.44;;;8.81;100.00
7614;BME280;3848;42.016;23.098;2022-11-13T08:32:56;98529.69;;;9.00;100.00
7614;BME280;3848;42.016;23.098;2022-11-13T08:35:23;98524.16;;;9.18;100.00
7614;BME280;3848;42.016;23.098;2022-11-13T08:37:50;98523.47;;;9.27;100.00
7614;BME280;3848;42.016;23.098;2022-11-13T08:40:18;98517.81;;;9.40;100.00
7614;BME280;3848;42.016;23.098;2022-11-13T08:42:45;98531.84;;;9.68;100.00
7614;BME280;3848;42.016;23.098;2022-11-13T08:45:12;98529.47;;;9.77;100.00
7614;BME280;3848;42.016;23.098;2022-11-13T08:47:39;98529.56;;;9.82;100.00
7614;BME280;3848;42.016;23.098;2022-11-13T08:50:06;98528.09;;;9.96;100.00
7614;BME280;3848;42.016;23.098;2022-11-13T08:52:33;98528.34;;;10.09;100.00
7614;BME280;3848;42.016;23.098;2022-11-13T08:55:00;98527.75;;;10.23;100.00
7614;BME280;3848;42.016;23.098;2022-11-13T08:57:28;98530.50;;;10.38;100.00
7614;BME280;3848;42.016;23.098;2022-11-13T08:59:55;98523.06;;;10.50;100.00
7614;BME280;3848;42.016;23.098;2022-11-13T09:02:22;98513.28;;;10.78;100.00
7614;BME280;3848;42.016;23.098;2022-11-13T09:04:49;98512.06;;;11.15;100.00
7614;BME280;3848;42.016;23.098;2022-11-13T09:07:16;98516.63;;;11.45;100.00
7614;BME280;3848;42.016;23.098;2022-11-13T09:09:43;98504.97;;;11.64;100.00
7614;BME280;3848;42.016;23.098;2022-11-13T09:12:09;98501.75;;;11.80;100.00
7614;BME280;3848;42.016;23.098;2022-11-13T09:14:38;98505.28;;;11.91;100.00
7614;BME280;3848;42.016;23.098;2022-11-13T09:17:04;98501.94;;;11.98;100.00
7614;BME280;3848;42.016;23.098;2022-11-13T09:19:31;98501.22;;;12.17;100.00
7614;BME280;3848;42.016;23.098;2022-11-13T09:21:58;98503.06;;;12.35;100.00
7614;BME280;3848;42.016;23.098;2022-11-13T09:24:25;98504.91;;;12.58;100.00
7614;BME280;3848;42.016;23.098;2022-11-13T09:26:52;98494.81;;;12.76;100.00
7614;BME280;3848;42.016;23.098;2022-11-13T09:29:18;98502.56;;;12.96;100.00
7614;BME280;3848;42.016;23.098;2022-11-13T09:31:49;98491.53;;;13.03;100.00
7614;BME280;3848;42.016;23.098;2022-11-13T09:34:15;98477.09;;;13.09;100.00
7614;BME280;3848;42.016;23.098;2022-11-13T09:36:42;98485.75;;;13.34;100.00
7614;BME280;3848;42.016;23.098;2022-11-13T09:39:09;98495.16;;;13.55;100.00
7614;BME280;3848;42.016;23.098;2022-11-13T09:41:39;98488.38;;;13.79;100.00
7614;BME280;3848;42.016;23.098;2022-11-13T09:44:12;98483.28;;;14.01;100.00
7614;BME280;3848;42.016;23.098;2022-11-13T09:46:42;98483.25;;;14.09;100.00
7614;BME280;3848;42.016;23.098;2022-11-13T09:49:15;98466.19;;;14.32;100.00
7614;BME280;3848;42.016;23.098;2022-11-13T09:51:49;98465.28;;;14.75;99.90
7614;BME280;3848;42.016;23.098;2022-11-13T09:54:17;98453.19;;;15.13;96.70
7614;BME280;3848;42.016;23.098;2022-11-13T09:56:50;98455.19;;;16.03;86.41
7614;BME280;3848;42.016;23.098;2022-11-13T09:59:23;98403.25;;;16.66;76.05
7614;BME280;3848;42.016;23.098;2022-11-13T10:02:02;98433.69;;;17.59;70.90
7614;BME280;3848;42.016;23.098;2022-11-13T10:04:49;98431.28;;;18.50;64.60
7614;BME280;3848;42.016;23.098;2022-11-13T10:07:28;98426.78;;;19.06;58.53
7614;BME280;3848;42.016;23.098;2022-11-13T10:10:15;98418.00;;;19.16;58.23
7614;BME280;3848;42.016;23.098;2022-11-13T10:12:43;98425.63;;;19.21;57.04
7614;BME280;3848;42.016;23.098;2022-11-13T10:15:13;98401.09;;;19.79;56.01
7614;BME280;3848;42.016;23.098;2022-11-13T10:17:45;98407.28;;;20.38;53.89
7614;BME280;3848;42.016;23.098;2022-11-13T10:20:21;98370.16;;;20.44;52.29
7614;BME280;3848;42.016;23.098;2022-11-13T10:22:50;98403.28;;;20.90;51.63
7614;BME280;3848;42.016;23.098;2022-11-13T10:25:19;98406.38;;;21.33;51.17
7614;BME280;3848;42.016;23.098;2022-11-13T10:27:49;98389.16;;;21.32;48.47
7614;BME280;3848;42.016;23.098;2022-11-13T10:33:40;98384.69;;;21.37;49.27
7614;BME280;3848;42.016;23.098;2022-11-13T10:36:15;98386.41;;;21.08;49.15
7614;BME280;3848;42.016;23.098;2022-11-13T10:38:48;98367.22;;;21.15;48.81
7614;BME280;3848;42.016;23.098;2022-11-13T10:41:18;98381.03;;;21.14;48.59
7614;BME280;3848;42.016;23.098;2022-11-13T10:43:49;98376.41;;;21.53;48.68
7614;BME280;3848;42.016;23.098;2022-11-13T10:46:19;98368.38;;;21.87;47.59
7614;BME280;3848;42.016;23.098;2022-11-13T10:48:46;98360.38;;;22.20;47.60
7614;BME280;3848;42.016;23.098;2022-11-13T10:51:23;98359.19;;;22.04;45.55
7614;BME280;3848;42.016;23.098;2022-11-13T10:53:51;98349.38;;;21.88;45.99
7614;BME280;3848;42.016;23.098;2022-11-13T10:56:26;98325.91;;;21.93;46.23
7614;BME280;3848;42.016;23.098;2022-11-13T10:59:02;98351.53;;;21.49;46.53
7614;BME280;3848;42.016;23.098;2022-11-13T11:01:29;98339.03;;;21.62;46.90
7614;BME280;3848;42.016;23.098;2022-11-13T11:03:56;98334.47;;;21.95;46.01
7614;BME280;3848;42.016;23.098;2022-11-13T11:06:32;98330.19;;;22.19;45.26
7614;BME280;3848;42.016;23.098;2022-11-13T11:09:07;98321.78;;;22.37;45.58
7614;BME280;3848;42.016;23.098;2022-11-13T11:11:39;98319.19;;;22.61;44.95
7614;BME280;3848;42.016;23.098;2022-11-13T11:14:26;98318.50;;;22.32;44.76
7614;BME280;3848;42.016;23.098;2022-11-13T11:16:55;98299.47;;;21.83;45.09
7614;BME280;3848;42.016;23.098;2022-11-13T11:19:25;98304.41;;;22.16;46.98
7614;BME280;3848;42.016;23.098;2022-11-13T11:22:00;98302.91;;;22.10;44.91
7614;BME280;3848;42.016;23.098;2022-11-13T11:24:32;98298.97;;;21.99;44.83
7614;BME280;3848;42.016;23.098;2022-11-13T11:27:03;98292.16;;;22.21;44.76
7614;BME280;3848;42.016;23.098;2022-11-13T11:29:35;98292.03;;;22.47;44.59
7614;BME280;3848;42.016;23.098;2022-11-13T11:32:08;98282.44;;;22.73;43.23
7614;BME280;3848;42.016;23.098;2022-11-13T11:34:40;98295.06;;;22.82;42.89
7614;BME280;3848;42.016;23.098;2022-11-13T11:37:14;98290.16;;;22.74;43.17
7614;BME280;3848;42.016;23.098;2022-11-13T11:39:47;98287.38;;;22.79;43.02
7614;BME280;3848;42.016;23.098;2022-11-13T11:42:21;98284.91;;;22.76;43.25
7614;BME280;3848;42.016;23.098;2022-11-13T11:45:01;98293.72;;;22.00;43.95
7614;BME280;3848;42.016;23.098;2022-11-13T11:47:29;98285.97;;;21.50;44.80
7614;BME280;3848;42.016;23.098;2022-11-13T11:49:58;98239.56;;;20.65;45.72
7614;BME280;3848;42.016;23.098;2022-11-13T11:52:45;98281.19;;;19.92;47.28
7614;BME280;3848;42.016;23.098;2022-11-13T11:55:29;98280.00;;;19.39;48.89
7614;BME280;3848;42.016;23.098;2022-11-13T11:58:04;98271.88;;;18.83;50.04
7614;BME280;3848;42.016;23.098;2022-11-13T12:00:35;98278.63;;;18.47;50.65
7614;BME280;3848;42.016;23.098;2022-11-13T12:03:20;98280.13;;;18.17;52.22
7614;BME280;3848;42.016;23.098;2022-11-13T12:05:59;98270.22;;;17.97;52.58
7614;BME280;3848;42.016;23.098;2022-11-13T12:08:36;98259.38;;;17.81;53.13
7614;BME280;3848;42.016;23.098;2022-11-13T12:11:14;98215.63;;;17.35;53.52
7614;BME280;3848;42.016;23.098;2022-11-13T12:13:51;98259.81;;;17.55;54.90
7614;BME280;3848;42.016;23.098;2022-11-13T12:16:29;98263.31;;;17.51;55.55
7614;BME280;3848;42.016;23.098;2022-11-13T12:19:01;98219.25;;;17.23;54.92
7614;BME280;3848;42.016;23.098;2022-11-13T12:21:38;98234.69;;;17.22;54.94
7614;BME280;3848;42.016;23.098;2022-11-13T12:24:24;98235.00;;;17.03;55.67
7614;BME280;3848;42.016;23.098;2022-11-13T12:27:02;98241.91;;;17.00;57.79
7614;BME280;3848;42.016;23.098;2022-11-13T12:29:39;98233.34;;;16.99;57.83
7614;BME280;3848;42.016;23.098;2022-11-13T12:32:24;98233.34;;;16.99;58.19
7614;BME280;3848;42.016;23.098;2022-11-13T12:34:59;98226.63;;;16.92;59.06
7614;BME280;3848;42.016;23.098;2022-11-13T12:37:33;98224.09;;;16.91;58.75
7614;BME280;3848;42.016;23.098;2022-11-13T12:40:06;98231.00;;;16.84;59.36
7614;BME280;3848;42.016;23.098;2022-11-13T12:42:38;98227.63;;;16.82;59.61
7614;BME280;3848;42.016;23.098;2022-11-13T12:45:14;98225.94;;;16.81;59.86
7614;BME280;3848;42.016;23.098;2022-11-13T12:48:07;98208.09;;;16.73;59.80
7614;BME280;3848;42.016;23.098;2022-11-13T12:50:34;98215.59;;;16.84;60.41
7614;BME280;3848;42.016;23.098;2022-11-13T12:53:03;98213.91;;;16.83;61.15
7614;BME280;3848;42.016;23.098;2022-11-13T12:55:34;98185.06;;;16.69;61.70
7614;BME280;3848;42.016;23.098;2022-11-13T12:58:08;98207.03;;;16.87;60.23
7614;BME280;3848;42.016;23.098;2022-11-13T13:00:37;98210.44;;;16.87;59.70
7614;BME280;3848;42.016;23.098;2022-11-13T13:03:20;98203.59;;;16.86;60.59
7614;BME280;3848;42.016;23.098;2022-11-13T13:06:13;98201.06;;;16.83;60.93
7614;BME280;3848;42.016;23.098;2022-11-13T13:08:48;98209.59;;;16.87;60.03
7614;BME280;3848;42.016;23.098;2022-11-13T13:11:25;98201.91;;;16.87;59.88
7614;BME280;3848;42.016;23.098;2022-11-13T13:14:06;98206.06;;;16.94;59.82
7614;BME280;3848;42.016;23.098;2022-11-13T13:16:36;98198.31;;;16.95;59.75
7614;BME280;3848;42.016;23.098;2022-11-13T13:19:06;98194.94;;;16.93;60.04
7614;BME280;3848;42.016;23.098;2022-11-13T13:21:41;98195.88;;;16.88;60.44
7614;BME280;3848;42.016;23.098;2022-11-13T13:24:26;98202.75;;;16.87;62.08
7614;BME280;3848;42.016;23.098;2022-11-13T13:26:55;98201.00;;;16.89;61.27
7614;BME280;3848;42.016;23.098;2022-11-13T13:29:23;98205.25;;;16.90;60.56